createdAt,value
2019-06-20T00:00:39.779Z,9.53
2019-06-20T00:05:44.085Z,6.40
2019-06-20T00:10:50.453Z,5.27
2019-06-20T00:15:54.231Z,5.33
2019-06-20T00:20:57.867Z,8.27
2019-06-20T00:26:04.360Z,10.77
2019-06-20T00:31:14.332Z,7.47
2019-06-20T00:36:19.655Z,5.43
2019-06-20T00:41:24.918Z,6.93
2019-06-20T00:46:33.101Z,9.60
2019-06-20T00:51:37.169Z,5.20
2019-06-20T00:56:44.399Z,5.90
2019-06-20T01:01:50.927Z,6.43
2019-06-20T01:06:54.533Z,9.20
2019-06-20T01:11:58.140Z,5.37
2019-06-20T01:17:01.962Z,5.40
2019-06-20T01:22:05.817Z,6.17
2019-06-20T01:27:12.022Z,9.03
2019-06-20T01:32:17.269Z,6.00
2019-06-20T01:37:22.541Z,4.93
2019-06-20T01:42:29.098Z,8.13
2019-06-20T01:47:32.703Z,6.90
2019-06-20T01:52:37.990Z,6.63
2019-06-20T01:57:50.105Z,4.40
2019-06-20T02:02:53.804Z,4.83
2019-06-20T02:07:57.406Z,4.53
2019-06-20T02:13:05.099Z,6.50
2019-06-20T02:18:08.858Z,4.43
2019-06-20T02:23:15.515Z,4.97
2019-06-20T02:28:20.925Z,5.43
2019-06-20T02:33:30.652Z,5.00
2019-06-20T02:38:37.081Z,5.10
2019-06-20T02:43:40.780Z,5.07
2019-06-20T02:48:44.386Z,5.40
2019-06-20T02:53:48.243Z,4.93
2019-06-20T02:58:52.013Z,5.53
2019-06-20T03:03:55.647Z,4.97
2019-06-20T03:08:59.294Z,6.80
2019-06-20T03:14:03.007Z,6.77
2019-06-20T03:19:06.725Z,6.70
2019-06-20T03:24:10.314Z,7.53
2019-06-20T03:29:13.943Z,5.73
2019-06-20T03:34:17.575Z,5.40
2019-06-20T03:39:21.209Z,6.70
2019-06-20T03:44:24.854Z,5.27
2019-06-20T03:49:28.475Z,4.67
2019-06-20T03:54:32.099Z,6.13
2019-06-20T03:59:35.719Z,6.93
2019-06-20T04:04:39.341Z,5.57
2019-06-20T04:09:42.953Z,8.43
2019-06-20T04:14:49.007Z,5.90
2019-06-20T04:19:51.855Z,6.27
2019-06-20T04:24:55.471Z,6.50
2019-06-20T04:30:00.648Z,7.63
2019-06-20T04:35:06.030Z,7.13
2019-06-20T04:40:10.775Z,8.70
2019-06-20T04:45:35.400Z,9.33
2019-06-20T04:50:37.574Z,6.60
2019-06-20T04:55:41.219Z,5.30
2019-06-20T05:00:45.576Z,5.37
2019-06-20T05:05:50.441Z,6.00
2019-06-20T05:10:56.201Z,5.20
2019-06-20T05:15:59.964Z,6.97
2019-06-20T05:21:04.030Z,7.17
2019-06-20T05:26:08.101Z,7.30
2019-06-20T05:31:12.973Z,7.33
2019-06-20T05:36:16.863Z,7.20
2019-06-20T05:41:24.041Z,9.13
2019-06-20T05:46:28.512Z,8.30
2019-06-20T05:51:32.668Z,7.83
2019-06-20T05:56:39.284Z,5.40
2019-06-20T06:01:43.014Z,6.30
2019-06-20T06:06:47.576Z,6.57
2019-06-20T06:11:51.977Z,6.77
2019-06-20T06:16:57.163Z,5.90
2019-06-20T06:22:02.501Z,6.30
2019-06-20T06:27:06.472Z,8.23
2019-06-20T06:32:10.205Z,6.00
2019-06-20T06:37:13.948Z,8.97
2019-06-20T06:42:17.710Z,12.00
2019-06-20T06:47:22.338Z,4.17
2019-06-20T06:52:25.969Z,6.10
2019-06-20T06:57:29.651Z,4.27
2019-06-20T07:02:33.389Z,5.60
2019-06-20T07:07:37.147Z,8.93
2019-06-20T07:12:40.785Z,5.30
2019-06-20T07:17:44.484Z,5.80
2019-06-20T07:22:48.190Z,6.13
2019-06-20T07:27:51.817Z,5.50
2019-06-20T07:32:55.502Z,6.27
2019-06-20T07:37:59.194Z,5.77
2019-06-20T07:43:02.953Z,4.87
2019-06-20T07:48:06.735Z,5.80
2019-06-20T07:53:10.339Z,6.43
2019-06-20T07:58:13.985Z,5.23
2019-06-20T08:03:17.657Z,6.00
2019-06-20T08:08:21.279Z,4.73
2019-06-20T08:13:25.007Z,3.63
2019-06-20T08:18:31.745Z,5.20
2019-06-20T08:23:35.414Z,5.10
2019-06-20T08:28:39.036Z,4.20
2019-06-20T08:33:42.675Z,4.27
2019-06-20T08:38:46.345Z,4.00
2019-06-20T08:43:49.980Z,6.03
2019-06-20T08:48:53.614Z,5.17
2019-06-20T08:53:57.548Z,5.47
2019-06-20T08:59:02.404Z,4.70
2019-06-20T09:04:06.504Z,4.40
2019-06-20T09:09:10.171Z,5.33
2019-06-20T09:14:13.807Z,3.97
2019-06-20T09:19:17.417Z,4.30
2019-06-20T09:24:21.046Z,3.87
2019-06-20T09:29:24.755Z,3.67
2019-06-20T09:34:28.443Z,5.77
2019-06-20T09:39:32.183Z,6.20
2019-06-20T09:44:35.812Z,4.47
2019-06-20T09:49:39.432Z,6.00
2019-06-20T09:54:43.115Z,3.70
2019-06-20T09:59:58.987Z,3.43
2019-06-20T10:04:52.404Z,4.60
2019-06-20T10:09:56.346Z,4.00
2019-06-20T10:15:00.044Z,4.27
2019-06-20T10:20:05.788Z,4.77
2019-06-20T10:25:09.927Z,6.63
2019-06-20T10:30:14.892Z,4.73
2019-06-20T10:35:20.601Z,5.27
2019-06-20T10:40:24.664Z,3.67
2019-06-20T10:45:28.770Z,10.40
2019-06-20T10:50:32.819Z,4.80
2019-06-20T10:55:36.578Z,6.40
2019-06-20T11:00:41.689Z,5.50
2019-06-20T11:05:45.615Z,5.10
2019-06-20T11:10:49.381Z,5.80
2019-06-20T11:15:52.994Z,6.80
2019-06-20T11:20:56.644Z,5.20
2019-06-20T11:26:00.788Z,6.50
2019-06-20T11:31:04.550Z,5.47
2019-06-20T11:36:08.337Z,5.00
2019-06-20T11:41:12.031Z,5.30
2019-06-20T11:46:15.729Z,10.20
2019-06-20T11:51:19.429Z,8.10
2019-06-20T11:56:23.045Z,8.00
2019-06-20T12:01:32.813Z,5.97
2019-06-20T12:06:32.030Z,6.87
2019-06-20T12:11:35.735Z,6.90
2019-06-20T12:16:40.824Z,9.00
2019-06-20T12:21:44.998Z,6.43
2019-06-20T12:26:48.709Z,6.60
2019-06-20T12:31:53.438Z,7.00
2019-06-20T12:36:57.128Z,10.90
2019-06-20T12:42:00.983Z,8.93
2019-06-20T12:47:04.574Z,6.83
2019-06-20T12:52:08.291Z,8.30
2019-06-20T12:57:14.914Z,12.10
2019-06-20T13:02:18.627Z,8.07
2019-06-20T13:07:22.284Z,7.50
2019-06-20T13:12:26.056Z,7.10
2019-06-20T13:17:29.683Z,7.90
2019-06-20T13:22:33.315Z,10.23
2019-06-20T13:27:39.085Z,8.30
2019-06-20T13:32:43.802Z,10.37
2019-06-20T13:37:49.817Z,6.77
2019-06-20T13:42:54.742Z,7.63
2019-06-20T13:47:58.812Z,9.53
2019-06-20T13:53:02.442Z,11.10
2019-06-20T13:58:06.302Z,7.63
2019-06-20T14:03:10.141Z,8.47
2019-06-20T14:08:13.832Z,11.37
2019-06-20T14:13:19.475Z,7.70
2019-06-20T14:18:22.912Z,10.00
2019-06-20T14:23:26.618Z,9.40
2019-06-20T14:28:30.435Z,7.10
2019-06-20T14:33:34.050Z,7.57
2019-06-20T14:38:37.705Z,7.40
2019-06-20T14:43:41.362Z,8.30
2019-06-20T14:48:46.709Z,9.10
2019-06-20T14:53:50.751Z,11.20
2019-06-20T14:58:55.530Z,10.80
2019-06-20T15:03:59.250Z,10.27
2019-06-20T15:09:09.125Z,9.47
2019-06-20T15:14:12.754Z,10.43
2019-06-20T15:19:16.399Z,6.70
2019-06-20T15:24:20.015Z,11.13
2019-06-20T15:29:23.648Z,11.57
2019-06-20T15:34:27.295Z,10.30
2019-06-20T15:39:30.951Z,10.50
2019-06-20T15:44:34.586Z,11.10
2019-06-20T15:49:38.187Z,9.00
2019-06-20T15:54:41.803Z,12.80
2019-06-20T15:59:45.427Z,12.43
2019-06-20T16:04:49.076Z,11.70
2019-06-20T16:09:52.818Z,10.70
2019-06-20T16:14:56.549Z,14.53
2019-06-20T16:20:00.182Z,11.27
2019-06-20T16:25:05.393Z,11.77
2019-06-20T16:30:10.195Z,13.60
2019-06-20T16:35:15.466Z,12.03
2019-06-20T16:40:38.570Z,12.50
2019-06-20T16:45:43.408Z,12.20
2019-06-20T16:50:47.151Z,12.90
2019-06-20T16:55:51.080Z,9.77
2019-06-20T17:00:54.863Z,11.13
2019-06-20T17:05:58.495Z,12.30
2019-06-20T17:11:03.244Z,12.77
2019-06-20T17:16:06.980Z,13.03
2019-06-20T17:21:10.703Z,13.30
2019-06-20T17:26:14.330Z,13.20
2019-06-20T17:31:17.988Z,13.40
2019-06-20T17:36:21.736Z,10.63
2019-06-20T17:41:25.375Z,16.00
2019-06-20T17:46:29.070Z,11.50
2019-06-20T17:51:32.676Z,12.37
2019-06-20T17:56:36.399Z,14.73
2019-06-20T18:01:40.038Z,15.00
2019-06-20T18:06:43.959Z,14.57
2019-06-20T18:11:47.627Z,13.93
2019-06-20T18:16:51.429Z,18.57
2019-06-20T18:21:55.114Z,12.40
2019-06-20T18:26:58.820Z,9.70
2019-06-20T18:32:02.576Z,12.13
2019-06-20T18:37:06.363Z,11.60
2019-06-20T18:42:10.250Z,9.50
2019-06-20T18:47:13.888Z,10.40
2019-06-20T18:52:17.774Z,10.17
2019-06-20T18:57:21.498Z,9.30
2019-06-20T19:02:29.690Z,9.23
2019-06-20T19:07:33.317Z,7.50
2019-06-20T19:12:37.028Z,9.03
2019-06-20T19:17:40.923Z,8.10
2019-06-20T19:22:44.591Z,8.90
2019-06-20T19:27:48.392Z,9.00
2019-06-20T19:32:51.979Z,7.37
2019-06-20T19:37:55.731Z,8.60
2019-06-20T19:42:59.421Z,10.73
2019-06-20T19:48:03.692Z,8.50
2019-06-20T19:53:07.479Z,7.23
2019-06-20T19:58:11.318Z,7.00
2019-06-20T20:03:15.018Z,8.53
2019-06-20T20:08:18.725Z,9.87
2019-06-20T20:13:22.351Z,6.60
2019-06-20T20:18:26.126Z,8.60
2019-06-20T20:23:29.786Z,7.20
2019-06-20T20:28:34.526Z,7.43
2019-06-20T20:33:39.725Z,11.80
2019-06-20T20:38:43.341Z,10.80
2019-06-20T20:43:46.956Z,8.43
2019-06-20T20:48:50.637Z,10.13
2019-06-20T20:53:54.333Z,10.83
2019-06-20T20:59:00.918Z,7.10
2019-06-20T21:04:04.685Z,6.03
2019-06-20T21:09:08.556Z,10.53
2019-06-20T21:14:12.193Z,9.07
2019-06-20T21:19:16.061Z,17.40
2019-06-20T21:24:19.703Z,13.00
2019-06-20T21:29:23.318Z,9.40
2019-06-20T21:34:28.575Z,10.80
2019-06-20T21:39:32.174Z,15.50
2019-06-20T21:44:35.792Z,15.30
2019-06-20T21:49:39.419Z,18.57
2019-06-20T21:54:44.205Z,7.17
2019-06-20T21:59:48.269Z,9.40
2019-06-20T22:04:54.829Z,6.53
2019-06-20T22:09:58.856Z,8.97
2019-06-20T22:15:07.495Z,14.57
2019-06-20T22:20:13.210Z,10.20
2019-06-20T22:25:18.902Z,11.43
2019-06-20T22:30:46.815Z,13.87
2019-06-20T22:35:50.507Z,8.53
2019-06-20T22:40:56.112Z,6.07
2019-06-20T22:46:11.034Z,11.97
2019-06-20T22:51:17.144Z,6.33
2019-06-20T22:56:20.916Z,6.13
2019-06-20T23:01:36.316Z,6.73
2019-06-20T23:06:55.364Z,6.03
2019-06-20T23:11:55.680Z,11.33
2019-06-20T23:16:59.289Z,6.10
2019-06-20T23:22:05.579Z,6.87
2019-06-20T23:27:20.361Z,9.37
2019-06-20T23:32:23.983Z,8.43
2019-06-20T23:37:30.681Z,6.30
2019-06-20T23:42:44.343Z,6.63
2019-06-20T23:47:48.023Z,4.90
2019-06-20T23:53:07.043Z,6.03
2019-06-20T23:58:10.697Z,5.97
